Time;durP1;ratioP1;P1;durP2;ratioP2;P2;SDS_P1;SDS_P2;PMS_P1;PMS_P2;Temp;Humidity;BMP_temperature;BMP_pressure;BME280_temperature;BME280_humidity;BME280_pressure;Samples;Min_cycle;Max_cycle;Signal;HPM_P1;HPM_P2
2022/05/17 00:01:00;;;;;;;5.50;2.45;;;;;;;;;;5024321;28;20125;-77
2022/05/17 00:03:27;;;;;;;4.22;1.90;;;;;;;;;;5025016;28;20054;-77
2022/05/17 00:05:54;;;;;;;11.48;2.50;;;;;;;;;;5024331;28;20136;-77
2022/05/17 00:08:21;;;;;;;10.82;2.83;;;;;;;;;;5008173;28;20153;-77
2022/05/17 00:10:49;;;;;;;5.00;2.05;;;;;;;;;;5020705;28;20055;-77
2022/05/17 00:13:16;;;;;;;10.27;2.20;;;;;;;;;;5007309;28;20167;-77
2022/05/17 00:15:45;;;;;;;5.13;2.03;;;;;;;;;;5023988;28;20056;-78
2022/05/17 00:18:13;;;;;;;8.77;2.13;;;;;;;;;;5019931;28;20061;-77
2022/05/17 00:20:41;;;;;;;8.13;2.72;;;;;;;;;;5024491;28;20159;-77
2022/05/17 00:23:09;;;;;;;10.27;2.00;;;;;;;;;;5003213;28;20107;-77
2022/05/17 00:25:36;;;;;;;8.60;2.55;;;;;;;;;;5021473;28;20132;-77
2022/05/17 00:28:04;;;;;;;8.63;2.40;;;;;;;;;;5005772;28;20132;-77
2022/05/17 00:30:31;;;;;;;3.72;2.20;;;;;;;;;;5022706;28;20557;-77
2022/05/17 00:32:59;;;;;;;10.15;1.95;;;;;;;;;;5036749;28;20143;-77
2022/05/17 00:35:26;;;;;;;8.55;2.58;;;;;;;;;;5030887;28;20072;-77
2022/05/17 00:37:53;;;;;;;2.97;1.70;;;;;;;;;;5027157;28;20167;-77
2022/05/17 00:40:21;;;;;;;7.25;2.25;;;;;;;;;;5027026;28;20737;-77
2022/05/17 00:42:48;;;;;;;6.93;2.47;;;;;;;;;;5020521;28;20103;-77
2022/05/17 00:45:15;;;;;;;6.75;2.35;;;;;;;;;;5027219;28;20574;-77
2022/05/17 00:47:45;;;;;;;5.65;1.90;;;;;;;;;;4999619;28;20053;-77
2022/05/17 00:50:15;;;;;;;5.65;1.98;;;;;;;;;;5027389;28;21959;-77
2022/05/17 00:52:44;;;;;;;5.78;2.15;;;;;;;;;;5008621;28;21844;-78
2022/05/17 00:55:23;;;;;;;5.40;2.05;;;;;;;;;;5027744;28;20053;-77
2022/05/17 00:57:55;;;;;;;6.95;2.30;;;;;;;;;;5024946;28;20633;-77
2022/05/17 01:00:24;;;;;;;10.55;2.38;;;;;;;;;;5025006;28;20096;-77
2022/05/17 01:02:53;;;;;;;4.53;2.22;;;;;;;;;;5025392;28;20045;-77
2022/05/17 01:05:21;;;;;;;6.95;1.98;;;;;;;;;;5025110;28;20073;-77
2022/05/17 01:07:52;;;;;;;6.13;2.33;;;;;;;;;;5024649;28;20489;-77
2022/05/17 01:10:19;;;;;;;5.63;2.20;;;;;;;;;;5006571;28;20045;-77
2022/05/17 01:14:57;;;;;;;4.57;2.35;;;;;;;;;;5008838;28;20080;-77
2022/05/17 01:15:34;;;;;;;7.15;2.08;;;;;;;;;;5026462;28;20104;-77
2022/05/17 01:18:02;;;;;;;5.75;2.20;;;;;;;;;;5025905;28;20145;-77
2022/05/17 01:20:30;;;;;;;6.78;1.75;;;;;;;;;;5025480;28;20712;-77
2022/05/17 01:22:57;;;;;;;7.72;1.90;;;;;;;;;;5026827;28;20187;-77
2022/05/17 01:25:24;;;;;;;9.60;2.10;;;;;;;;;;5026075;28;20072;-77
2022/05/17 01:28:10;;;;;;;10.07;2.58;;;;;;;;;;5008926;28;20581;-77
2022/05/17 01:30:37;;;;;;;8.55;2.30;;;;;;;;;;4997425;28;20140;-77
2022/05/17 01:33:04;;;;;;;8.68;2.00;;;;;;;;;;5026011;28;20140;-77
2022/05/17 01:35:32;;;;;;;7.63;2.28;;;;;;;;;;5025227;28;20447;-78
2022/05/17 01:38:00;;;;;;;5.70;2.20;;;;;;;;;;5025918;28;20132;-78
2022/05/17 01:40:27;;;;;;;5.03;1.85;;;;;;;;;;5008259;28;20049;-78
2022/05/17 01:42:55;;;;;;;5.30;2.03;;;;;;;;;;5023776;28;20116;-78
2022/05/17 01:45:22;;;;;;;7.88;2.10;;;;;;;;;;5009624;28;20041;-77
2022/05/17 01:47:50;;;;;;;5.63;2.42;;;;;;;;;;5017083;28;20510;-78
2022/05/17 01:50:17;;;;;;;4.20;1.98;;;;;;;;;;5026244;28;20065;-78
2022/05/17 01:52:44;;;;;;;5.68;1.90;;;;;;;;;;5026499;28;20079;-78
2022/05/17 01:55:12;;;;;;;8.90;2.92;;;;;;;;;;5026109;28;20540;-78
2022/05/17 01:57:39;;;;;;;4.47;2.00;;;;;;;;;;5009374;28;20156;-78
2022/05/17 02:00:08;;;;;;;5.68;1.60;;;;;;;;;;5005914;28;20452;-78
2022/05/17 02:02:36;;;;;;;5.32;1.88;;;;;;;;;;5026558;28;20072;-79
2022/05/17 02:05:04;;;;;;;4.63;1.50;;;;;;;;;;5025252;28;20041;-78
2022/05/17 02:07:31;;;;;;;6.38;2.30;;;;;;;;;;5016299;28;20111;-78
2022/05/17 02:09:58;;;;;;;5.28;2.05;;;;;;;;;;5026168;28;20088;-78
2022/05/17 02:12:26;;;;;;;4.75;2.10;;;;;;;;;;5009523;28;20613;-78
2022/05/17 02:14:53;;;;;;;5.82;2.08;;;;;;;;;;5008925;28;20132;-78
2022/05/17 02:17:20;;;;;;;6.35;2.83;;;;;;;;;;5008323;28;20235;-78
2022/05/17 02:19:47;;;;;;;17.73;2.08;;;;;;;;;;5024402;28;20136;-78
2022/05/17 02:22:14;;;;;;;5.07;2.08;;;;;;;;;;5025363;28;20613;-78
2022/05/17 02:24:41;;;;;;;6.28;1.67;;;;;;;;;;5026427;28;20053;-78
2022/05/17 02:27:08;;;;;;;7.07;2.22;;;;;;;;;;5009788;28;20130;-78
2022/05/17 02:29:35;;;;;;;4.63;2.00;;;;;;;;;;5025474;28;20132;-78
2022/05/17 02:32:03;;;;;;;11.65;2.20;;;;;;;;;;5007741;28;20049;-78
2022/05/17 02:34:31;;;;;;;10.82;2.63;;;;;;;;;;5008003;28;20502;-78
2022/05/17 02:36:59;;;;;;;4.85;1.88;;;;;;;;;;5019728;28;20168;-79
2022/05/17 02:39:26;;;;;;;3.22;1.80;;;;;;;;;;5026156;28;20683;-78
2022/05/17 02:41:53;;;;;;;6.68;1.92;;;;;;;;;;5008448;28;20533;-78
2022/05/17 02:44:20;;;;;;;5.68;2.15;;;;;;;;;;5023233;28;20494;-77
2022/05/17 02:46:47;;;;;;;9.55;2.30;;;;;;;;;;5007620;28;20149;-78
2022/05/17 02:49:15;;;;;;;7.13;2.47;;;;;;;;;;5010105;28;20130;-78
2022/05/17 02:51:43;;;;;;;7.88;2.05;;;;;;;;;;5028816;28;20148;-78
2022/05/17 02:54:10;;;;;;;6.38;2.80;;;;;;;;;;5022555;28;20053;-78
2022/05/17 02:56:38;;;;;;;11.45;2.50;;;;;;;;;;5025232;28;20140;-78
2022/05/17 02:59:05;;;;;;;9.35;2.38;;;;;;;;;;5024556;28;20517;-77
2022/05/17 03:01:33;;;;;;;4.78;2.42;;;;;;;;;;5023592;28;20164;-78
2022/05/17 03:04:01;;;;;;;3.05;2.05;;;;;;;;;;5007667;28;20053;-79
2022/05/17 03:06:28;;;;;;;6.10;2.00;;;;;;;;;;5025118;28;20057;-78
2022/05/17 03:08:55;;;;;;;12.00;2.30;;;;;;;;;;5024242;28;20489;-78
2022/05/17 03:11:22;;;;;;;4.50;2.30;;;;;;;;;;5006993;28;20128;-78
2022/05/17 03:13:49;;;;;;;4.70;1.98;;;;;;;;;;5020948;28;20409;-78
2022/05/17 03:16:16;;;;;;;8.95;2.47;;;;;;;;;;5022474;28;20084;-78
2022/05/17 03:18:44;;;;;;;5.70;1.90;;;;;;;;;;5004464;28;20073;-78
2022/05/17 03:21:11;;;;;;;8.05;2.67;;;;;;;;;;5015369;28;20824;-78
2022/05/17 03:23:38;;;;;;;7.40;2.00;;;;;;;;;;5023337;28;20533;-78
2022/05/17 03:26:05;;;;;;;18.08;2.78;;;;;;;;;;5004276;28;20083;-78
2022/05/17 03:28:32;;;;;;;4.65;2.08;;;;;;;;;;5004914;28;20148;-78
2022/05/17 03:30:59;;;;;;;5.05;2.22;;;;;;;;;;5021085;28;20465;-78
2022/05/17 03:33:27;;;;;;;6.93;2.25;;;;;;;;;;5023990;28;20123;-77
2022/05/17 03:35:54;;;;;;;7.88;2.22;;;;;;;;;;5023759;28;20148;-78
2022/05/17 03:38:21;;;;;;;10.27;2.67;;;;;;;;;;5020328;28;20128;-78
2022/05/17 03:40:52;;;;;;;4.40;2.20;;;;;;;;;;5022702;28;20068;-78
2022/05/17 03:43:20;;;;;;;8.13;3.03;;;;;;;;;;5005487;28;20049;-78
2022/05/17 03:45:47;;;;;;;9.18;2.35;;;;;;;;;;5024974;28;20045;-78
2022/05/17 03:48:14;;;;;;;13.70;2.47;;;;;;;;;;5023786;28;20058;-78
2022/05/17 03:50:42;;;;;;;10.27;2.85;;;;;;;;;;5024285;28;20604;-78
2022/05/17 03:53:09;;;;;;;7.40;3.00;;;;;;;;;;5024008;28;20421;-78
2022/05/17 03:55:36;;;;;;;9.25;4.60;;;;;;;;;;5021789;28;20127;-78
2022/05/17 03:58:04;;;;;;;10.18;5.68;;;;;;;;;;5002567;28;20605;-77
2022/05/17 04:00:31;;;;;;;19.33;6.15;;;;;;;;;;5020989;28;20124;-78
2022/05/17 04:02:58;;;;;;;14.68;4.95;;;;;;;;;;5024753;28;20692;-77
2022/05/17 04:05:26;;;;;;;31.55;5.50;;;;;;;;;;5027176;28;20132;-77
2022/05/17 04:07:53;;;;;;;10.07;4.13;;;;;;;;;;5010632;28;20059;-78
2022/05/17 04:10:20;;;;;;;10.25;3.63;;;;;;;;;;5004091;28;20046;-78
2022/05/17 04:12:47;;;;;;;11.93;4.20;;;;;;;;;;5007686;28;20085;-77
2022/05/17 04:15:16;;;;;;;7.22;3.70;;;;;;;;;;5023708;28;20049;-77
2022/05/17 04:17:44;;;;;;;8.85;4.50;;;;;;;;;;5009056;28;20095;-78
2022/05/17 04:20:14;;;;;;;9.38;3.63;;;;;;;;;;5026074;28;20469;-77
2022/05/17 04:22:45;;;;;;;19.77;4.30;;;;;;;;;;5009483;28;20081;-77
2022/05/17 04:25:12;;;;;;;14.27;3.80;;;;;;;;;;5026198;28;20132;-78
2022/05/17 04:27:40;;;;;;;9.23;2.78;;;;;;;;;;5027541;28;20084;-77
2022/05/17 04:30:08;;;;;;;6.97;2.53;;;;;;;;;;5011522;28;20084;-77
2022/05/17 04:32:35;;;;;;;14.63;2.75;;;;;;;;;;5026700;28;20429;-77
2022/05/17 04:35:03;;;;;;;8.30;2.22;;;;;;;;;;5008275;28;20053;-77
2022/05/17 04:37:30;;;;;;;9.43;2.33;;;;;;;;;;5025471;28;20612;-77
2022/05/17 04:39:57;;;;;;;5.18;2.50;;;;;;;;;;5025221;28;20140;-77
2022/05/17 04:42:25;;;;;;;10.10;2.30;;;;;;;;;;5025706;28;20092;-77
2022/05/17 04:44:53;;;;;;;7.78;2.28;;;;;;;;;;5009108;28;20057;-77
2022/05/17 04:47:20;;;;;;;8.95;2.20;;;;;;;;;;5027912;28;20073;-78
2022/05/17 04:49:47;;;;;;;6.88;2.03;;;;;;;;;;5010396;28;20069;-77
2022/05/17 04:52:15;;;;;;;5.93;2.67;;;;;;;;;;5026741;28;20089;-77
2022/05/17 04:54:43;;;;;;;5.85;2.47;;;;;;;;;;5026561;28;20136;-77
2022/05/17 04:57:10;;;;;;;8.00;2.17;;;;;;;;;;5023509;28;20080;-77
2022/05/17 04:59:37;;;;;;;5.28;2.88;;;;;;;;;;5025628;28;20057;-77
2022/05/17 05:02:05;;;;;;;8.00;2.38;;;;;;;;;;5027182;28;20076;-78
2022/05/17 05:04:33;;;;;;;18.05;2.55;;;;;;;;;;5011817;28;20101;-77
2022/05/17 05:07:00;;;;;;;10.10;2.28;;;;;;;;;;5024793;28;20540;-74
2022/05/17 05:09:27;;;;;;;5.40;2.10;;;;;;;;;;5007444;28;20470;-76
2022/05/17 05:11:54;;;;;;;18.27;2.72;;;;;;;;;;5004208;28;20091;-74
2022/05/17 05:14:21;;;;;;;7.90;2.20;;;;;;;;;;5008157;28;20131;-75
2022/05/17 05:16:49;;;;;;;4.53;2.08;;;;;;;;;;5024045;28;20131;-75
2022/05/17 05:19:16;;;;;;;7.30;2.13;;;;;;;;;;5008824;28;20045;-74
2022/05/17 05:21:43;;;;;;;14.68;2.83;;;;;;;;;;5024340;28;20088;-74
2022/05/17 05:24:11;;;;;;;4.93;2.30;;;;;;;;;;5025286;28;20046;-72
2022/05/17 05:26:39;;;;;;;6.47;2.50;;;;;;;;;;5008305;28;20094;-74
2022/05/17 05:29:06;;;;;;;6.78;2.65;;;;;;;;;;4988043;28;20149;-73
2022/05/17 05:31:34;;;;;;;5.03;2.28;;;;;;;;;;5004113;28;20065;-73
2022/05/17 05:34:01;;;;;;;8.98;2.15;;;;;;;;;;4983110;28;20137;-74
2022/05/17 05:36:29;;;;;;;7.95;2.72;;;;;;;;;;4986995;28;20140;-75
2022/05/17 05:38:56;;;;;;;7.75;1.95;;;;;;;;;;4959817;28;20766;-76
2022/05/17 05:41:24;;;;;;;5.70;2.10;;;;;;;;;;5021395;28;20053;-74
2022/05/17 05:43:51;;;;;;;6.25;2.75;;;;;;;;;;4973210;28;20049;-74
2022/05/17 05:46:18;;;;;;;6.63;2.17;;;;;;;;;;4976300;28;20050;-74
2022/05/17 05:48:45;;;;;;;9.43;2.13;;;;;;;;;;4962063;28;20490;-74
2022/05/17 05:51:13;;;;;;;10.35;2.22;;;;;;;;;;4997899;28;20050;-75
2022/05/17 05:53:40;;;;;;;16.38;2.30;;;;;;;;;;5014287;28;20128;-75
2022/05/17 05:56:07;;;;;;;7.40;2.40;;;;;;;;;;4993035;28;20573;-75
2022/05/17 05:58:35;;;;;;;7.57;2.75;;;;;;;;;;4991945;28;20490;-75
2022/05/17 06:01:03;;;;;;;13.10;2.38;;;;;;;;;;5004039;28;20049;-75
2022/05/17 06:03:31;;;;;;;9.80;2.67;;;;;;;;;;5016988;28;20133;-74
2022/05/17 06:05:59;;;;;;;11.60;3.00;;;;;;;;;;5006080;28;20057;-73
2022/05/17 06:08:26;;;;;;;6.80;2.17;;;;;;;;;;5002159;28;20045;-73
2022/05/17 06:10:53;;;;;;;6.50;2.67;;;;;;;;;;5019139;28;20136;-72
2022/05/17 06:13:20;;;;;;;6.47;2.30;;;;;;;;;;5018880;28;20667;-72
2022/05/17 06:15:48;;;;;;;12.13;2.55;;;;;;;;;;5022322;28;20077;-73
2022/05/17 06:18:15;;;;;;;7.97;2.30;;;;;;;;;;5023870;28;20746;-74
2022/05/17 06:20:48;;;;;;;6.93;1.80;;;;;;;;;;5025629;28;20148;-74
2022/05/17 06:23:15;;;;;;;9.75;2.00;;;;;;;;;;5023436;28;20174;-74
2022/05/17 06:25:42;;;;;;;4.47;2.17;;;;;;;;;;5022925;28;20112;-74
2022/05/17 06:28:10;;;;;;;8.88;2.28;;;;;;;;;;5019700;28;20128;-73
2022/05/17 06:30:37;;;;;;;13.30;2.63;;;;;;;;;;5022113;28;20116;-74
2022/05/17 06:33:12;;;;;;;18.27;2.42;;;;;;;;;;5004884;28;20081;-74
2022/05/17 06:35:40;;;;;;;7.10;2.17;;;;;;;;;;5024471;28;21380;-74
2022/05/17 06:38:07;;;;;;;9.60;2.22;;;;;;;;;;5025502;28;20133;-75
2022/05/17 06:40:34;;;;;;;7.38;3.70;;;;;;;;;;5023977;28;20142;-75
2022/05/17 06:43:01;;;;;;;7.28;2.03;;;;;;;;;;5024733;28;20157;-75
2022/05/17 06:45:29;;;;;;;5.47;2.17;;;;;;;;;;5006329;28;20401;-75
2022/05/17 06:47:56;;;;;;;14.63;2.80;;;;;;;;;;5025893;28;20139;-75
2022/05/17 06:50:23;;;;;;;10.13;2.20;;;;;;;;;;5024578;28;20128;-75
2022/05/17 06:52:50;;;;;;;13.77;2.85;;;;;;;;;;5025250;28;20591;-75
2022/05/17 06:55:17;;;;;;;18.50;3.17;;;;;;;;;;5024082;28;20080;-76
2022/05/17 06:57:45;;;;;;;17.20;2.63;;;;;;;;;;5025094;28;20741;-75
2022/05/17 07:00:13;;;;;;;11.13;3.65;;;;;;;;;;5006186;28;20157;-75
2022/05/17 07:02:41;;;;;;;10.38;2.28;;;;;;;;;;5024610;28;20063;-75
2022/05/17 07:05:09;;;;;;;17.55;2.25;;;;;;;;;;5006298;28;20056;-75
2022/05/17 07:07:37;;;;;;;5.82;2.25;;;;;;;;;;5024341;28;20065;-75
2022/05/17 07:13:09;;;;;;;13.43;2.50;;;;;;;;;;5022263;28;20098;-75
2022/05/17 07:15:37;;;;;;;6.68;2.28;;;;;;;;;;5021812;28;20081;-75
2022/05/17 07:18:05;;;;;;;5.78;2.50;;;;;;;;;;5023831;28;20594;-76
2022/05/17 07:20:32;;;;;;;5.45;2.08;;;;;;;;;;5023488;28;20141;-76
2022/05/17 07:22:59;;;;;;;13.10;2.00;;;;;;;;;;5023620;28;20148;-76
2022/05/17 07:25:27;;;;;;;11.90;2.80;;;;;;;;;;5005440;28;20191;-76
2022/05/17 07:27:54;;;;;;;7.40;2.53;;;;;;;;;;5023624;28;20073;-76
2022/05/17 07:30:21;;;;;;;7.30;2.15;;;;;;;;;;5024288;28;20055;-76
2022/05/17 07:32:48;;;;;;;11.13;2.97;;;;;;;;;;5019532;28;20072;-76
2022/05/17 07:35:15;;;;;;;5.78;2.30;;;;;;;;;;5022992;28;20144;-76
2022/05/17 07:37:43;;;;;;;6.20;2.15;;;;;;;;;;5023914;28;20049;-76
2022/05/17 07:40:12;;;;;;;8.60;2.70;;;;;;;;;;5022807;28;21452;-75
2022/05/17 07:42:42;;;;;;;6.15;2.05;;;;;;;;;;5019453;28;20143;-76
2022/05/17 07:45:10;;;;;;;7.68;2.58;;;;;;;;;;5022673;28;20053;-75
2022/05/17 07:47:37;;;;;;;10.15;2.50;;;;;;;;;;5021667;28;20182;-75
2022/05/17 07:50:05;;;;;;;6.35;2.22;;;;;;;;;;4999533;28;20124;-76
2022/05/17 07:52:32;;;;;;;12.10;2.50;;;;;;;;;;5023446;28;20138;-76
2022/05/17 07:55:00;;;;;;;18.30;2.47;;;;;;;;;;5005383;28;20437;-76
2022/05/17 07:57:27;;;;;;;14.25;2.50;;;;;;;;;;5014794;28;20768;-76
2022/05/17 07:59:55;;;;;;;4.18;2.13;;;;;;;;;;5015322;28;20103;-75
2022/05/17 08:02:22;;;;;;;5.93;2.42;;;;;;;;;;5016957;28;20175;-75
2022/05/17 08:04:49;;;;;;;5.00;2.00;;;;;;;;;;5011869;28;20184;-76
2022/05/17 08:07:17;;;;;;;7.13;2.17;;;;;;;;;;4994986;28;20041;-75
2022/05/17 08:09:44;;;;;;;6.82;1.98;;;;;;;;;;5008296;28;20057;-75
2022/05/17 08:12:18;;;;;;;15.25;2.55;;;;;;;;;;5014929;28;20490;-75
2022/05/17 08:14:47;;;;;;;10.10;2.53;;;;;;;;;;5000107;28;21023;-75
2022/05/17 08:17:14;;;;;;;6.10;2.05;;;;;;;;;;5017086;28;20474;-75
2022/05/17 08:19:42;;;;;;;8.82;2.25;;;;;;;;;;5016544;28;20223;-75
2022/05/17 08:22:11;;;;;;;11.02;2.20;;;;;;;;;;5016686;28;20045;-75
2022/05/17 08:27:31;;;;;;;8.07;2.45;;;;;;;;;;5017514;28;20144;-74
2022/05/17 08:30:03;;;;;;;4.63;2.42;;;;;;;;;;5014450;28;20081;-74
2022/05/17 08:35:17;;;;;;;9.60;3.50;;;;;;;;;;5023071;28;20084;-74
2022/05/17 08:37:44;;;;;;;8.93;2.63;;;;;;;;;;5004653;28;21593;-74
2022/05/17 08:40:18;;;;;;;10.05;2.42;;;;;;;;;;5022081;28;20140;-75
2022/05/17 08:43:04;;;;;;;9.20;2.50;;;;;;;;;;5004164;28;20053;-75
2022/05/17 08:45:34;;;;;;;4.28;2.22;;;;;;;;;;5023799;28;20053;-74
2022/05/17 08:48:04;;;;;;;53.95;3.45;;;;;;;;;;5024033;28;20081;-74
2022/05/17 08:50:34;;;;;;;13.43;2.75;;;;;;;;;;5024436;28;20053;-76
2022/05/17 08:53:02;;;;;;;9.73;3.50;;;;;;;;;;5027913;28;20049;-73
2022/05/17 08:55:34;;;;;;;6.82;2.70;;;;;;;;;;5000437;28;20084;-74
2022/05/17 08:58:13;;;;;;;20.00;3.40;;;;;;;;;;4986154;28;20052;-74
2022/05/17 09:00:44;;;;;;;7.30;3.15;;;;;;;;;;5024356;28;20151;-74
2022/05/17 09:03:11;;;;;;;6.00;2.22;;;;;;;;;;5025834;28;20580;-73
2022/05/17 09:05:41;;;;;;;12.82;2.70;;;;;;;;;;5026836;28;20045;-74
2022/05/17 09:08:31;;;;;;;5.95;2.60;;;;;;;;;;5027226;28;20052;-74
2022/05/17 09:11:17;;;;;;;12.80;2.90;;;;;;;;;;5015639;28;20053;-74
2022/05/17 09:13:50;;;;;;;6.63;2.85;;;;;;;;;;5007993;28;20148;-74
2022/05/17 09:16:38;;;;;;;6.28;2.42;;;;;;;;;;5026523;28;20196;-74
2022/05/17 09:19:06;;;;;;;8.73;3.08;;;;;;;;;;5027053;28;20141;-74
2022/05/17 09:21:33;;;;;;;11.32;2.95;;;;;;;;;;5026221;28;20156;-74
2022/05/17 09:24:04;;;;;;;8.93;3.17;;;;;;;;;;5026302;28;20059;-74
2022/05/17 09:26:31;;;;;;;14.25;3.22;;;;;;;;;;5026596;28;20059;-74
2022/05/17 09:28:58;;;;;;;10.77;3.03;;;;;;;;;;5025904;28;20931;-74
2022/05/17 09:31:28;;;;;;;8.43;2.63;;;;;;;;;;5026351;28;20318;-74
2022/05/17 09:33:57;;;;;;;8.02;3.00;;;;;;;;;;5026904;28;20073;-73
2022/05/17 09:36:25;;;;;;;10.65;3.05;;;;;;;;;;5025970;28;20467;-74
2022/05/17 09:38:53;;;;;;;6.65;2.70;;;;;;;;;;5026086;28;20049;-74
2022/05/17 09:41:28;;;;;;;9.02;2.65;;;;;;;;;;5007813;28;20147;-75
2022/05/17 09:44:04;;;;;;;9.50;2.80;;;;;;;;;;5025488;28;20080;-74
2022/05/17 09:46:36;;;;;;;15.05;3.00;;;;;;;;;;5025802;28;20069;-76
2022/05/17 09:54:54;;;;;;;16.35;2.85;;;;;;;;;;5025950;28;20045;-75
2022/05/17 09:57:31;;;;;;;10.43;3.22;;;;;;;;;;5025978;28;20060;-77
2022/05/17 10:00:12;;;;;;;9.45;2.80;;;;;;;;;;5007481;28;20077;-77
2022/05/17 10:02:42;;;;;;;6.68;2.75;;;;;;;;;;5025926;28;20049;-73
2022/05/17 10:05:27;;;;;;;9.32;3.22;;;;;;;;;;5026020;28;20050;-73
2022/05/17 10:07:54;;;;;;;;;;;;;;;;;;5025452;28;20080;-74
2022/05/17 10:10:21;;;;;;;25.60;3.75;;;;;;;;;;5025293;28;20439;-74
2022/05/17 10:12:51;;;;;;;8.27;2.67;;;;;;;;;;5007842;28;20173;-74
2022/05/17 10:15:19;;;;;;;14.77;3.38;;;;;;;;;;5008375;28;20063;-74
2022/05/17 10:17:52;;;;;;;5.82;3.08;;;;;;;;;;5025830;28;20065;-74
2022/05/17 10:20:40;;;;;;;10.15;2.63;;;;;;;;;;5024152;28;20156;-74
2022/05/17 10:23:10;;;;;;;16.30;3.55;;;;;;;;;;5024070;28;20875;-74
2022/05/17 10:25:41;;;;;;;12.15;2.97;;;;;;;;;;5023495;28;20222;-74
2022/05/17 10:28:28;;;;;;;9.95;2.92;;;;;;;;;;5023457;28;20132;-74
2022/05/17 10:31:02;;;;;;;9.30;2.80;;;;;;;;;;5024723;28;20050;-73
2022/05/17 10:33:33;;;;;;;6.18;2.90;;;;;;;;;;5016011;28;20072;-74
2022/05/17 10:36:02;;;;;;;7.47;2.85;;;;;;;;;;5015108;28;20515;-73
2022/05/17 10:38:44;;;;;;;14.93;2.85;;;;;;;;;;5007955;28;20132;-74
2022/05/17 10:41:12;;;;;;;8.70;2.95;;;;;;;;;;5017142;28;20128;-74
2022/05/17 10:43:41;;;;;;;7.93;2.65;;;;;;;;;;4999041;28;20123;-74
2022/05/17 10:46:11;;;;;;;5.80;2.70;;;;;;;;;;5016365;28;20195;-74
2022/05/17 10:48:39;;;;;;;7.30;2.42;;;;;;;;;;5014037;28;20581;-73
2022/05/17 10:51:06;;;;;;;15.13;3.22;;;;;;;;;;5016070;28;20885;-73
2022/05/17 10:53:51;;;;;;;7.43;2.80;;;;;;;;;;5020091;28;20545;-73
2022/05/17 10:56:21;;;;;;;10.23;2.92;;;;;;;;;;5001659;28;20159;-73
2022/05/17 10:59:02;;;;;;;5.65;2.60;;;;;;;;;;5015000;28;20076;-73
2022/05/17 11:01:33;;;;;;;10.55;2.33;;;;;;;;;;4990152;28;20141;-72
2022/05/17 11:04:19;;;;;;;11.80;3.00;;;;;;;;;;5014520;28;20057;-73
2022/05/17 11:06:56;;;;;;;10.13;2.80;;;;;;;;;;5017669;28;20830;-73
2022/05/17 11:09:37;;;;;;;34.45;3.70;;;;;;;;;;5013401;28;20053;-72
2022/05/17 11:12:09;;;;;;;10.23;3.03;;;;;;;;;;5012261;28;20052;-72
2022/05/17 11:14:41;;;;;;;6.63;2.55;;;;;;;;;;5009589;28;20052;-72
2022/05/17 11:17:08;;;;;;;8.43;3.00;;;;;;;;;;4998176;28;20064;-72
2022/05/17 11:19:36;;;;;;;13.18;3.25;;;;;;;;;;5004864;28;20053;-73
2022/05/17 11:22:16;;;;;;;7.43;2.70;;;;;;;;;;5018256;28;21108;-73
2022/05/17 11:24:53;;;;;;;7.72;3.00;;;;;;;;;;5001917;28;20055;-74
2022/05/17 11:27:23;;;;;;;11.50;3.15;;;;;;;;;;5005272;28;20155;-74
2022/05/17 11:29:53;;;;;;;68.85;5.25;;;;;;;;;;5001909;28;20774;-74
2022/05/17 11:32:25;;;;;;;5.22;2.63;;;;;;;;;;5002172;28;20049;-74
2022/05/17 11:34:53;;;;;;;7.78;2.60;;;;;;;;;;4998855;28;20045;-74
2022/05/17 11:37:45;;;;;;;5.15;2.58;;;;;;;;;;5017829;28;20055;-74
2022/05/17 11:40:36;;;;;;;9.13;3.10;;;;;;;;;;5016063;28;20084;-75
2022/05/17 11:45:53;;;;;;;12.07;2.58;;;;;;;;;;5016688;28;20143;-74
2022/05/17 11:48:22;;;;;;;5.70;2.67;;;;;;;;;;5017444;28;20162;-74
2022/05/17 11:50:52;;;;;;;6.88;2.58;;;;;;;;;;5015813;28;20064;-75
2022/05/17 11:53:23;;;;;;;11.25;2.90;;;;;;;;;;5015900;28;20054;-74
2022/05/17 11:56:09;;;;;;;5.03;2.22;;;;;;;;;;5000298;28;20048;-75
2022/05/17 11:58:37;;;;;;;15.35;2.58;;;;;;;;;;5015693;28;20045;-74
2022/05/17 12:01:24;;;;;;;11.13;2.80;;;;;;;;;;4999595;28;20084;-74
2022/05/17 12:03:53;;;;;;;4.57;2.30;;;;;;;;;;5023456;28;20056;-74
2022/05/17 12:06:33;;;;;;;8.23;2.58;;;;;;;;;;5006120;28;20152;-74
2022/05/17 12:09:00;;;;;;;5.75;2.30;;;;;;;;;;5022922;28;20084;-74
2022/05/17 12:11:46;;;;;;;4.22;2.22;;;;;;;;;;5006057;28;20130;-75
2022/05/17 12:14:20;;;;;;;13.80;2.50;;;;;;;;;;5024221;28;20135;-75
2022/05/17 12:16:50;;;;;;;17.83;2.70;;;;;;;;;;5005841;28;20049;-74
2022/05/17 12:19:36;;;;;;;9.05;2.40;;;;;;;;;;5006194;28;20045;-75
2022/05/17 12:22:06;;;;;;;4.57;2.10;;;;;;;;;;5022850;28;20149;-74
2022/05/17 12:24:39;;;;;;;9.27;2.15;;;;;;;;;;5006942;28;20168;-74
2022/05/17 12:27:06;;;;;;;8.55;2.83;;;;;;;;;;5010062;28;20053;-74
2022/05/17 12:32:31;;;;;;;35.17;3.60;;;;;;;;;;5027932;28;20136;-74
2022/05/17 12:34:58;;;;;;;9.82;2.25;;;;;;;;;;5027393;28;20235;-74
2022/05/17 12:37:27;;;;;;;6.38;2.35;;;;;;;;;;5008982;28;20180;-74
2022/05/17 12:43:05;;;;;;;6.97;2.03;;;;;;;;;;5026910;28;20131;-75
2022/05/17 12:45:38;;;;;;;8.95;2.28;;;;;;;;;;5009455;28;20064;-75
2022/05/17 12:48:13;;;;;;;7.90;2.13;;;;;;;;;;5025637;28;20577;-74
2022/05/17 12:50:54;;;;;;;10.60;2.78;;;;;;;;;;5026704;28;20144;-75
2022/05/17 12:53:26;;;;;;;8.98;2.50;;;;;;;;;;5009017;28;20238;-74
2022/05/17 12:56:00;;;;;;;8.18;2.35;;;;;;;;;;5026481;28;20724;-74
2022/05/17 12:58:27;;;;;;;5.18;1.95;;;;;;;;;;5025898;28;20041;-74
2022/05/17 13:00:56;;;;;;;5.22;2.22;;;;;;;;;;5026540;28;20654;-74
2022/05/17 13:03:25;;;;;;;8.30;2.40;;;;;;;;;;5025228;28;20136;-74
2022/05/17 13:05:53;;;;;;;9.63;2.83;;;;;;;;;;5026886;28;20143;-74
2022/05/17 13:08:29;;;;;;;6.32;2.92;;;;;;;;;;5027110;28;20184;-74
2022/05/17 13:11:08;;;;;;;6.18;2.72;;;;;;;;;;5026688;28;20061;-74
2022/05/17 13:13:41;;;;;;;9.40;2.80;;;;;;;;;;5027047;28;20171;-74
2022/05/17 13:16:16;;;;;;;8.00;2.58;;;;;;;;;;5026157;28;20080;-74
2022/05/17 13:18:43;;;;;;;;;;;;;;;;;;5026948;28;20049;-73
2022/05/17 13:21:22;;;;;;;7.68;3.13;;;;;;;;;;5018736;28;20057;-74
2022/05/17 13:23:51;;;;;;;10.32;2.83;;;;;;;;;;5026185;28;20171;-74
2022/05/17 13:26:28;;;;;;;9.48;2.83;;;;;;;;;;5026029;28;20049;-74
2022/05/17 13:28:57;;;;;;;15.18;2.78;;;;;;;;;;5025457;28;20056;-73
2022/05/17 13:31:26;;;;;;;7.05;2.95;;;;;;;;;;5008243;28;20060;-73
2022/05/17 13:33:56;;;;;;;7.22;2.80;;;;;;;;;;5008155;28;20045;-73
2022/05/17 13:36:32;;;;;;;13.25;2.97;;;;;;;;;;5027434;28;20150;-73
2022/05/17 13:38:59;;;;;;;6.53;2.28;;;;;;;;;;5007796;28;20056;-73
2022/05/17 13:41:40;;;;;;;7.38;2.53;;;;;;;;;;5025965;28;20795;-73
2022/05/17 13:44:08;;;;;;;9.80;2.75;;;;;;;;;;5008147;28;20287;-73
2022/05/17 13:46:38;;;;;;;6.90;2.75;;;;;;;;;;5026022;28;20072;-73
2022/05/17 13:49:20;;;;;;;9.45;2.42;;;;;;;;;;5025546;28;20042;-73
2022/05/17 13:52:01;;;;;;;6.50;2.03;;;;;;;;;;5014225;28;20046;-73
2022/05/17 13:54:34;;;;;;;7.10;2.80;;;;;;;;;;5008365;28;20103;-74
2022/05/17 13:57:04;;;;;;;36.53;4.28;;;;;;;;;;5025039;28;20407;-74
2022/05/17 13:59:31;;;;;;;6.85;2.67;;;;;;;;;;5023132;28;20119;-73
2022/05/17 14:02:00;;;;;;;6.10;2.70;;;;;;;;;;5024748;28;20045;-73
2022/05/17 14:04:37;;;;;;;7.65;2.47;;;;;;;;;;5024379;28;20130;-73
2022/05/17 14:07:17;;;;;;;11.50;2.88;;;;;;;;;;5023433;28;20176;-73
2022/05/17 14:13:26;;;;;;;8.68;4.60;;;;;;;;;;5024167;28;20077;-73
2022/05/17 14:16:00;;;;;;;9.98;2.95;;;;;;;;;;4991039;28;20053;-73
2022/05/17 14:18:38;;;;;;;12.30;3.20;;;;;;;;;;4998951;28;20057;-73
2022/05/17 14:21:06;;;;;;;22.65;2.88;;;;;;;;;;5016422;28;20045;-73
2022/05/17 14:23:35;;;;;;;10.38;2.90;;;;;;;;;;5005627;28;20053;-73
2022/05/17 14:26:02;;;;;;;4.38;2.65;;;;;;;;;;5025075;28;20141;-73
2022/05/17 14:28:30;;;;;;;12.82;2.72;;;;;;;;;;4997688;28;20047;-74
2022/05/17 14:30:58;;;;;;;8.15;2.70;;;;;;;;;;5017840;28;20055;-74
2022/05/17 14:33:25;;;;;;;7.57;2.33;;;;;;;;;;5002484;28;20045;-73
2022/05/17 14:35:53;;;;;;;9.38;2.58;;;;;;;;;;4984463;28;20192;-74
2022/05/17 14:38:21;;;;;;;8.45;2.75;;;;;;;;;;5002204;28;20183;-74
2022/05/17 14:40:48;;;;;;;9.50;2.53;;;;;;;;;;4972684;28;20049;-73
2022/05/17 14:43:16;;;;;;;6.07;2.60;;;;;;;;;;4999740;28;20377;-74
2022/05/17 14:45:45;;;;;;;6.15;2.58;;;;;;;;;;4972633;28;20718;-74
2022/05/17 14:48:17;;;;;;;12.00;2.70;;;;;;;;;;4989900;28;23685;-73
2022/05/17 14:50:44;;;;;;;10.90;2.33;;;;;;;;;;5007193;28;20619;-73
2022/05/17 14:53:12;;;;;;;15.50;1.98;;;;;;;;;;5007739;28;20137;-73
2022/05/17 14:55:39;;;;;;;20.55;2.53;;;;;;;;;;5013261;28;20061;-73
2022/05/17 14:58:07;;;;;;;11.38;1.90;;;;;;;;;;4994370;28;21172;-73
2022/05/17 15:00:36;;;;;;;17.67;2.40;;;;;;;;;;5014843;28;20049;-73
2022/05/17 15:03:08;;;;;;;6.22;1.73;;;;;;;;;;5024434;23;20117;-74
2022/05/17 15:05:35;;;;;;;9.65;1.92;;;;;;;;;;4976690;28;20050;-74
2022/05/17 15:08:03;;;;;;;7.40;1.38;;;;;;;;;;4961572;28;21315;-75
2022/05/17 15:10:33;;;;;;;7.43;1.30;;;;;;;;;;4963560;28;20161;-75
2022/05/17 15:13:00;;;;;;;8.13;1.90;;;;;;;;;;4982438;28;20559;-74
2022/05/17 15:15:28;;;;;;;8.70;1.70;;;;;;;;;;4980515;28;20058;-75
2022/05/17 15:17:58;;;;;;;13.90;2.17;;;;;;;;;;4979291;28;20078;-76
2022/05/17 15:20:25;;;;;;;86.40;5.30;;;;;;;;;;4985724;28;20105;-76
2022/05/17 15:22:56;;;;;;;8.75;1.83;;;;;;;;;;4981126;28;20137;-76